createdAt,value
2018-11-11T00:00:49.497Z,0.00
2018-11-11T00:01:49.523Z,0.00
2018-11-11T00:02:49.553Z,0.00
2018-11-11T00:03:49.579Z,0.00
2018-11-11T00:04:49.605Z,0.00
2018-11-11T00:05:49.633Z,0.00
2018-11-11T00:06:49.660Z,0.00
2018-11-11T00:07:49.687Z,0.00
2018-11-11T00:08:49.714Z,0.00
2018-11-11T00:09:49.744Z,0.00
2018-11-11T00:10:49.769Z,0.00
2018-11-11T00:11:49.795Z,0.00
2018-11-11T00:12:49.823Z,0.00
2018-11-11T00:13:49.851Z,0.00
2018-11-11T00:14:49.879Z,0.00
2018-11-11T00:15:49.905Z,0.00
2018-11-11T00:16:49.933Z,0.00
2018-11-11T00:17:49.962Z,0.00
2018-11-11T00:18:49.987Z,0.00
2018-11-11T00:19:50.013Z,0.00
2018-11-11T00:20:50.044Z,0.00
2018-11-11T00:21:50.169Z,0.00
2018-11-11T00:22:50.096Z,0.00
2018-11-11T00:23:50.123Z,0.00
2018-11-11T00:24:50.149Z,0.00
2018-11-11T00:25:50.177Z,0.00
2018-11-11T00:26:50.208Z,0.00
2018-11-11T00:27:50.234Z,0.00
2018-11-11T00:28:50.266Z,0.00
2018-11-11T00:29:50.286Z,0.00
2018-11-11T00:30:50.314Z,0.00
2018-11-11T00:31:50.342Z,0.00
2018-11-11T00:32:50.373Z,0.00
2018-11-11T00:33:50.396Z,0.00
2018-11-11T00:34:50.474Z,0.00
2018-11-11T00:35:50.449Z,0.00
2018-11-11T00:36:50.479Z,0.00
2018-11-11T00:37:50.510Z,0.00
2018-11-11T00:38:50.531Z,0.00
2018-11-11T00:39:50.559Z,0.00
2018-11-11T00:40:50.584Z,0.00
2018-11-11T00:41:50.612Z,0.00
2018-11-11T00:42:50.641Z,0.00
2018-11-11T00:43:50.667Z,0.00
2018-11-11T00:44:50.694Z,0.00
2018-11-11T00:45:50.722Z,0.00
2018-11-11T00:46:50.749Z,0.00
2018-11-11T00:47:50.774Z,0.00
2018-11-11T00:48:50.803Z,0.00
2018-11-11T00:49:50.831Z,0.00
2018-11-11T00:50:50.862Z,0.00
2018-11-11T00:51:50.887Z,0.00
2018-11-11T00:52:50.911Z,0.00
2018-11-11T00:53:50.938Z,0.00
2018-11-11T00:54:50.967Z,0.00
2018-11-11T00:55:50.996Z,0.00
2018-11-11T00:56:51.020Z,0.00
2018-11-11T00:57:51.052Z,0.00
2018-11-11T00:58:51.080Z,0.00
2018-11-11T00:59:51.102Z,0.00
2018-11-11T01:00:51.131Z,0.00
2018-11-11T01:01:51.159Z,0.00
2018-11-11T01:02:51.184Z,0.00
2018-11-11T01:03:51.214Z,0.00
2018-11-11T01:04:51.237Z,0.00
2018-11-11T01:05:51.270Z,0.00
2018-11-11T01:06:51.293Z,0.00
2018-11-11T01:07:51.319Z,0.00
2018-11-11T01:08:51.349Z,0.00
2018-11-11T01:09:51.375Z,0.00
2018-11-11T01:10:51.404Z,0.00
2018-11-11T01:11:51.426Z,0.00
2018-11-11T01:12:51.457Z,0.00
2018-11-11T01:13:51.482Z,0.00
2018-11-11T01:14:51.510Z,0.00
2018-11-11T01:15:51.534Z,0.00
2018-11-11T01:16:51.566Z,0.00
2018-11-11T01:17:51.589Z,0.00
2018-11-11T01:18:51.617Z,0.00
2018-11-11T01:19:51.647Z,0.00
2018-11-11T01:20:51.670Z,0.00
2018-11-11T01:21:51.700Z,0.00
2018-11-11T01:22:51.725Z,0.00
2018-11-11T01:23:51.755Z,0.00
2018-11-11T01:24:51.778Z,0.00
2018-11-11T01:25:51.809Z,0.00
2018-11-11T01:26:51.838Z,0.00
2018-11-11T01:27:51.859Z,0.00
2018-11-11T01:28:51.887Z,0.00
2018-11-11T01:29:51.915Z,0.00
2018-11-11T01:30:51.942Z,0.00
2018-11-11T01:31:51.972Z,0.00
2018-11-11T01:32:51.994Z,0.00
2018-11-11T01:33:52.022Z,0.00
2018-11-11T01:34:52.051Z,0.00
2018-11-11T01:35:52.076Z,0.00
2018-11-11T01:36:52.101Z,0.00
2018-11-11T01:37:52.135Z,0.00
2018-11-11T01:38:52.159Z,0.00
2018-11-11T01:39:52.183Z,0.00
2018-11-11T01:40:52.213Z,0.00
2018-11-11T01:41:52.236Z,0.00
2018-11-11T01:42:52.270Z,0.00
2018-11-11T01:43:52.294Z,0.00
2018-11-11T01:44:52.318Z,0.00
2018-11-11T01:45:52.345Z,0.00
2018-11-11T01:46:52.372Z,0.00
2018-11-11T01:47:52.397Z,0.00
2018-11-11T01:48:52.429Z,0.00
2018-11-11T01:49:52.457Z,0.00
2018-11-11T01:50:52.478Z,0.00
2018-11-11T01:51:52.506Z,0.00
2018-11-11T01:52:52.533Z,0.00
2018-11-11T01:53:52.559Z,0.00
2018-11-11T01:54:52.585Z,0.00
2018-11-11T01:55:52.615Z,0.00
2018-11-11T01:56:52.640Z,0.00
2018-11-11T01:57:52.667Z,0.00
2018-11-11T01:58:52.695Z,0.00
2018-11-11T01:59:52.718Z,0.00
2018-11-11T02:00:52.749Z,0.00
2018-11-11T02:01:52.773Z,0.00
2018-11-11T02:02:52.800Z,0.00
2018-11-11T02:03:52.854Z,0.00
2018-11-11T02:04:52.853Z,0.00
2018-11-11T02:05:52.881Z,0.00
2018-11-11T02:06:52.907Z,0.00
2018-11-11T02:07:52.933Z,0.00
2018-11-11T02:08:52.959Z,0.00
2018-11-11T02:09:53.093Z,0.00
2018-11-11T02:10:53.015Z,0.00
2018-11-11T02:11:53.048Z,0.00
2018-11-11T02:12:53.068Z,0.00
2018-11-11T02:13:53.096Z,0.00
2018-11-11T02:14:53.122Z,0.00
2018-11-11T02:15:53.151Z,0.00
2018-11-11T02:16:53.173Z,0.00
2018-11-11T02:17:53.200Z,0.00
2018-11-11T02:18:53.230Z,0.00
2018-11-11T02:19:53.256Z,0.00
2018-11-11T02:20:53.289Z,0.00
2018-11-11T02:21:53.309Z,0.00
2018-11-11T02:22:53.336Z,0.00
2018-11-11T02:23:53.360Z,0.00
2018-11-11T02:24:53.390Z,0.00
2018-11-11T02:25:53.415Z,0.00
2018-11-11T02:26:53.442Z,0.00
2018-11-11T02:27:53.470Z,0.00
2018-11-11T02:28:53.495Z,0.00
2018-11-11T02:29:53.521Z,0.00
2018-11-11T02:30:53.549Z,0.00
2018-11-11T02:31:53.625Z,0.00
2018-11-11T02:32:53.606Z,0.00
2018-11-11T02:33:53.629Z,0.00
2018-11-11T02:34:53.655Z,0.00
2018-11-11T02:35:53.681Z,0.00
2018-11-11T02:36:53.708Z,0.00
2018-11-11T02:37:53.735Z,0.00
2018-11-11T02:38:53.768Z,0.00
2018-11-11T02:39:53.789Z,0.00
2018-11-11T02:40:53.813Z,0.00
2018-11-11T02:41:53.841Z,0.00
2018-11-11T02:42:53.869Z,0.00
2018-11-11T02:43:53.894Z,0.00
2018-11-11T02:44:53.923Z,0.00
2018-11-11T02:45:53.947Z,0.00
2018-11-11T02:46:53.974Z,0.00
2018-11-11T02:47:54.002Z,0.00
2018-11-11T02:48:54.029Z,0.00
2018-11-11T02:49:54.054Z,0.00
2018-11-11T02:50:54.080Z,0.00
2018-11-11T02:51:54.106Z,0.00
2018-11-11T02:52:54.134Z,0.00
2018-11-11T02:53:54.160Z,0.00
2018-11-11T02:54:54.186Z,0.00
2018-11-11T02:55:54.211Z,0.00
2018-11-11T02:56:54.245Z,0.00
2018-11-11T02:57:54.269Z,0.00
2018-11-11T02:58:54.297Z,0.00
2018-11-11T02:59:54.321Z,0.00
2018-11-11T03:00:54.346Z,0.00
2018-11-11T03:01:54.376Z,0.00
2018-11-11T03:02:54.399Z,0.00
2018-11-11T03:03:54.425Z,0.00
2018-11-11T03:04:54.452Z,0.00
2018-11-11T03:05:54.483Z,0.00
2018-11-11T03:06:54.507Z,0.00
2018-11-11T03:07:54.532Z,0.00
2018-11-11T03:08:54.558Z,0.00
2018-11-11T03:09:54.588Z,0.00
2018-11-11T03:10:54.611Z,0.00
2018-11-11T03:11:54.637Z,0.00
2018-11-11T03:12:54.664Z,0.00
2018-11-11T03:13:54.691Z,0.00
2018-11-11T03:14:54.718Z,0.00
2018-11-11T03:15:54.743Z,0.00
2018-11-11T03:16:54.773Z,0.00
2018-11-11T03:17:54.800Z,0.00
2018-11-11T03:18:54.824Z,0.00
2018-11-11T03:19:54.851Z,0.00
2018-11-11T03:20:54.876Z,0.00
2018-11-11T03:21:54.905Z,0.00
2018-11-11T03:22:54.932Z,0.00
2018-11-11T03:23:54.955Z,0.00
2018-11-11T03:24:54.996Z,0.00
2018-11-11T03:25:55.011Z,0.00
2018-11-11T03:26:55.036Z,0.00
2018-11-11T03:27:55.064Z,0.00
2018-11-11T03:28:55.090Z,0.00
2018-11-11T03:29:55.113Z,0.00
2018-11-11T03:30:55.144Z,0.00
2018-11-11T03:31:55.168Z,0.00
2018-11-11T03:32:55.196Z,0.00
2018-11-11T03:33:55.227Z,0.00
2018-11-11T03:34:55.247Z,0.00
2018-11-11T03:35:55.274Z,0.00
2018-11-11T03:36:55.300Z,0.00
2018-11-11T03:37:55.332Z,0.00
2018-11-11T03:38:55.353Z,0.00
2018-11-11T03:39:55.380Z,0.00
2018-11-11T03:40:55.405Z,0.00
2018-11-11T03:41:55.431Z,0.00
2018-11-11T03:42:55.459Z,0.00
2018-11-11T03:43:55.487Z,0.00
2018-11-11T03:44:55.511Z,0.00
2018-11-11T03:45:55.543Z,0.00
2018-11-11T03:46:55.564Z,0.00
2018-11-11T03:47:55.589Z,0.00
2018-11-11T03:48:55.615Z,0.00
2018-11-11T03:49:55.647Z,0.00
2018-11-11T03:50:55.673Z,0.00
2018-11-11T03:51:55.698Z,0.00
2018-11-11T03:52:55.728Z,0.00
2018-11-11T03:53:55.748Z,0.00
2018-11-11T03:54:55.775Z,0.00
2018-11-11T03:55:55.800Z,0.00
2018-11-11T03:56:55.832Z,0.00
2018-11-11T03:57:55.855Z,0.00
2018-11-11T03:58:55.989Z,0.00
2018-11-11T03:59:55.907Z,0.00
2018-11-11T04:00:55.947Z,0.00
2018-11-11T04:01:55.960Z,0.00
2018-11-11T04:02:55.986Z,0.00
2018-11-11T04:03:56.012Z,0.00
2018-11-11T04:04:56.038Z,0.00
2018-11-11T04:05:56.068Z,0.00
2018-11-11T04:06:56.098Z,0.00
2018-11-11T04:07:56.116Z,0.00
2018-11-11T04:08:56.146Z,0.00
2018-11-11T04:09:56.171Z,0.00
2018-11-11T04:10:56.198Z,0.00
2018-11-11T04:11:56.224Z,0.00
2018-11-11T04:12:56.252Z,0.00
2018-11-11T04:13:56.281Z,0.00
2018-11-11T04:14:56.303Z,0.00
2018-11-11T04:15:56.331Z,0.00
2018-11-11T04:16:56.359Z,0.00
2018-11-11T04:17:56.385Z,0.00
2018-11-11T04:18:56.408Z,0.00
2018-11-11T04:19:56.435Z,0.00
2018-11-11T04:20:56.461Z,0.00
2018-11-11T04:21:56.490Z,0.00
2018-11-11T04:22:56.516Z,0.00
2018-11-11T04:23:56.540Z,0.00
2018-11-11T04:24:56.570Z,0.00
2018-11-11T04:25:56.592Z,0.00
2018-11-11T04:26:56.624Z,0.00
2018-11-11T04:27:56.652Z,0.00
2018-11-11T04:28:56.671Z,0.00
2018-11-11T04:29:56.699Z,0.00
2018-11-11T04:30:56.724Z,0.00
2018-11-11T04:31:56.751Z,0.00
2018-11-11T04:32:56.780Z,0.00
2018-11-11T04:33:56.810Z,0.00
2018-11-11T04:34:56.834Z,0.00
2018-11-11T04:35:56.862Z,0.00
2018-11-11T04:36:56.884Z,0.00
2018-11-11T04:37:56.912Z,0.00
2018-11-11T04:38:57.024Z,0.00
2018-11-11T04:39:56.961Z,0.00
2018-11-11T04:40:56.993Z,0.00
2018-11-11T04:41:57.016Z,0.00
2018-11-11T04:42:57.042Z,0.00
2018-11-11T04:43:57.068Z,0.00
2018-11-11T04:44:57.097Z,0.00
2018-11-11T04:45:57.121Z,0.00
2018-11-11T04:46:57.147Z,0.00
2018-11-11T04:47:57.172Z,0.00
2018-11-11T04:48:57.200Z,0.00
2018-11-11T04:49:57.226Z,0.00
2018-11-11T04:50:57.256Z,0.00
2018-11-11T04:51:57.280Z,0.00
2018-11-11T04:52:57.306Z,0.00
2018-11-11T04:53:57.332Z,0.00
2018-11-11T04:54:57.361Z,0.00
2018-11-11T04:55:57.385Z,0.00
2018-11-11T04:56:57.412Z,0.00
2018-11-11T04:57:57.437Z,0.00
2018-11-11T04:58:57.466Z,0.00
2018-11-11T04:59:57.489Z,0.00
2018-11-11T05:00:57.520Z,0.00
2018-11-11T05:01:57.544Z,0.00
2018-11-11T05:02:57.576Z,0.00
2018-11-11T05:03:57.602Z,0.00
2018-11-11T05:04:57.624Z,0.00
2018-11-11T05:05:57.648Z,0.00
2018-11-11T05:06:57.678Z,0.00
2018-11-11T05:07:57.703Z,0.00
2018-11-11T05:08:57.734Z,0.00
2018-11-11T05:09:57.760Z,0.00
2018-11-11T05:10:57.786Z,0.00
2018-11-11T05:11:57.809Z,0.00
2018-11-11T05:12:57.840Z,0.00
2018-11-11T05:13:57.864Z,0.00
2018-11-11T05:14:57.887Z,0.00
2018-11-11T05:15:57.916Z,0.00
2018-11-11T05:16:57.944Z,0.00
2018-11-11T05:17:57.968Z,0.00
2018-11-11T05:18:57.994Z,0.00
2018-11-11T05:19:58.021Z,0.00
2018-11-11T05:20:58.046Z,0.00
2018-11-11T05:21:58.101Z,4.00
2018-11-11T05:22:58.101Z,4.00
2018-11-11T05:23:58.125Z,4.00
2018-11-11T05:24:58.157Z,4.00
2018-11-11T05:25:58.179Z,0.00
2018-11-11T05:26:58.206Z,4.00
2018-11-11T05:27:58.232Z,4.00
2018-11-11T05:28:58.257Z,4.00
2018-11-11T05:29:58.285Z,4.00
2018-11-11T05:30:58.401Z,4.00
2018-11-11T05:31:58.339Z,4.00
2018-11-11T05:32:58.364Z,8.00
2018-11-11T05:33:58.393Z,8.00
2018-11-11T05:34:58.418Z,12.00
2018-11-11T05:35:58.443Z,12.00
2018-11-11T05:36:58.471Z,16.00
2018-11-11T05:37:58.496Z,16.00
2018-11-11T05:38:58.522Z,16.00
2018-11-11T05:39:58.549Z,24.00
2018-11-11T05:40:58.574Z,24.00
2018-11-11T05:41:58.601Z,28.00
2018-11-11T05:42:58.632Z,32.00
2018-11-11T05:43:58.655Z,36.00
2018-11-11T05:44:58.680Z,40.00
2018-11-11T05:45:58.710Z,44.00
2018-11-11T05:46:58.734Z,52.00
2018-11-11T05:47:58.760Z,68.00
2018-11-11T05:48:58.786Z,80.00
2018-11-11T05:49:58.813Z,88.00
2018-11-11T05:50:58.840Z,108.00
2018-11-11T05:51:58.869Z,124.00
2018-11-11T05:52:58.892Z,124.00
2018-11-11T05:53:58.921Z,132.00
2018-11-11T05:54:58.949Z,152.00
2018-11-11T05:55:58.971Z,164.00
2018-11-11T05:56:58.998Z,184.00
2018-11-11T05:57:59.028Z,212.00
2018-11-11T05:58:59.050Z,244.00
2018-11-11T05:59:59.086Z,296.00
2018-11-11T06:00:59.108Z,304.00
2018-11-11T06:01:59.130Z,288.00
2018-11-11T06:02:59.165Z,312.00
2018-11-11T06:03:59.185Z,324.00
2018-11-11T06:04:59.210Z,304.00
2018-11-11T06:05:59.237Z,332.00
2018-11-11T06:06:59.266Z,380.00
2018-11-11T06:07:59.296Z,468.00
2018-11-11T06:08:59.317Z,560.00
2018-11-11T06:09:59.343Z,488.00
2018-11-11T06:10:59.374Z,444.00
2018-11-11T06:11:59.396Z,528.00
2018-11-11T06:12:59.424Z,664.00
2018-11-11T06:13:59.449Z,576.00
2018-11-11T06:14:59.476Z,624.00
2018-11-11T06:15:59.505Z,708.00
2018-11-11T06:16:59.529Z,704.00
2018-11-11T06:17:59.556Z,712.00
2018-11-11T06:18:59.582Z,684.00
2018-11-11T06:19:59.608Z,688.00
2018-11-11T06:20:59.636Z,968.00
2018-11-11T06:21:59.662Z,884.00
2018-11-11T06:22:59.687Z,888.00
2018-11-11T06:23:59.717Z,824.00
2018-11-11T06:24:59.743Z,748.00
2018-11-11T06:25:59.767Z,1024.00
2018-11-11T06:26:59.795Z,1128.00
2018-11-11T06:27:59.821Z,1044.00
2018-11-11T06:28:59.848Z,1052.00
2018-11-11T06:29:59.877Z,1220.00
2018-11-11T06:30:59.902Z,1120.00
2018-11-11T06:31:59.936Z,1092.00
2018-11-11T06:32:59.954Z,1188.00
2018-11-11T06:34:00.111Z,1332.00
2018-11-11T06:35:00.012Z,1520.00
2018-11-11T06:36:00.034Z,1332.00
2018-11-11T06:37:00.060Z,1476.00
2018-11-11T06:38:00.092Z,1712.00
2018-11-11T06:39:00.115Z,1656.00
2018-11-11T06:40:00.140Z,1368.00
2018-11-11T06:41:00.166Z,1500.00
2018-11-11T06:42:00.194Z,1736.00
2018-11-11T06:43:00.224Z,1584.00
2018-11-11T06:44:00.247Z,1580.00
2018-11-11T06:45:00.275Z,1680.00
2018-11-11T06:46:00.301Z,1864.00
2018-11-11T06:47:00.339Z,1736.00
2018-11-11T06:48:00.408Z,1568.00
2018-11-11T06:49:00.381Z,1640.00
2018-11-11T06:50:00.409Z,1592.00
2018-11-11T06:51:00.438Z,1564.00
2018-11-11T06:52:00.460Z,1592.00
2018-11-11T06:53:00.489Z,1604.00
2018-11-11T06:54:00.518Z,2032.00
2018-11-11T06:55:00.544Z,1892.00
2018-11-11T06:56:00.567Z,2192.00
2018-11-11T06:57:00.597Z,2096.00
2018-11-11T06:58:00.690Z,2060.00
2018-11-11T06:59:00.650Z,2000.00
2018-11-11T07:00:00.675Z,1900.00
2018-11-11T07:01:00.704Z,1940.00
2018-11-11T07:02:00.738Z,1892.00
2018-11-11T07:03:00.757Z,1992.00
2018-11-11T07:04:00.784Z,2120.00
2018-11-11T07:05:00.809Z,1900.00
2018-11-11T07:06:00.839Z,1656.00
2018-11-11T07:07:00.866Z,1624.00
2018-11-11T07:08:00.892Z,1968.00
2018-11-11T07:09:00.926Z,1772.00
2018-11-11T07:10:00.945Z,1792.00
2018-11-11T07:11:00.972Z,1788.00
2018-11-11T07:12:00.997Z,1816.00
2018-11-11T07:13:01.024Z,1844.00
2018-11-11T07:14:01.098Z,1872.00
2018-11-11T07:15:01.080Z,1908.00
2018-11-11T07:16:01.104Z,1840.00
2018-11-11T07:17:01.132Z,1744.00
2018-11-11T07:18:01.160Z,1804.00
2018-11-11T07:19:01.186Z,1628.00
2018-11-11T07:20:01.212Z,1620.00
2018-11-11T07:21:01.240Z,1876.00
2018-11-11T07:22:01.268Z,1932.00
2018-11-11T07:23:01.294Z,1660.00
2018-11-11T07:24:01.436Z,1760.00
2018-11-11T07:25:01.348Z,1812.00
2018-11-11T07:26:01.379Z,1852.00
2018-11-11T07:27:01.402Z,2228.00
2018-11-11T07:28:01.426Z,1948.00
2018-11-11T07:29:01.455Z,2172.00
2018-11-11T07:30:01.482Z,2104.00
2018-11-11T07:31:01.511Z,1956.00
2018-11-11T07:32:01.536Z,2156.00
2018-11-11T07:33:01.584Z,2380.00
2018-11-11T07:34:01.591Z,2500.00
2018-11-11T07:35:01.620Z,2392.00
2018-11-11T07:36:01.757Z,2644.00
2018-11-11T07:37:01.678Z,2916.00
2018-11-11T07:38:01.701Z,2968.00
2018-11-11T07:39:01.726Z,2772.00
2018-11-11T07:40:01.754Z,3544.00
2018-11-11T07:41:01.784Z,3272.00
2018-11-11T07:42:01.808Z,3236.00
2018-11-11T07:43:01.836Z,3176.00
2018-11-11T07:44:01.859Z,3612.00
2018-11-11T07:45:01.898Z,4352.00
2018-11-11T07:46:01.921Z,3556.00
2018-11-11T07:47:01.942Z,3084.00
2018-11-11T07:48:02.096Z,3880.00
2018-11-11T07:49:01.995Z,4352.00
2018-11-11T07:50:02.024Z,3796.00
2018-11-11T07:51:02.057Z,4052.00
2018-11-11T07:52:02.110Z,3936.00
2018-11-11T07:53:02.104Z,4456.00
2018-11-11T07:54:02.131Z,3872.00
2018-11-11T07:55:02.275Z,4532.00
2018-11-11T07:56:02.183Z,4088.00
2018-11-11T07:57:02.215Z,3632.00
2018-11-11T07:58:02.239Z,3948.00
2018-11-11T07:59:02.266Z,3160.00
2018-11-11T08:00:02.295Z,2960.00
2018-11-11T08:01:02.319Z,2776.00
2018-11-11T08:02:02.401Z,2792.00
2018-11-11T08:03:02.378Z,3104.00
2018-11-11T08:04:02.402Z,3100.00
2018-11-11T08:05:02.428Z,3236.00
2018-11-11T08:06:02.458Z,2944.00
2018-11-11T08:07:02.484Z,3020.00
2018-11-11T08:08:02.509Z,2844.00
2018-11-11T08:09:02.540Z,3020.00
2018-11-11T08:10:02.568Z,3340.00
2018-11-11T08:11:02.612Z,3104.00
2018-11-11T08:12:02.618Z,3604.00
2018-11-11T08:13:02.652Z,3564.00
2018-11-11T08:14:02.672Z,3136.00
2018-11-11T08:15:02.701Z,3764.00
2018-11-11T08:16:02.726Z,4016.00
2018-11-11T08:17:02.755Z,4372.00
2018-11-11T08:18:02.781Z,4068.00
2018-11-11T08:19:02.807Z,3364.00
2018-11-11T08:20:02.837Z,4180.00
2018-11-11T08:21:02.860Z,4228.00
2018-11-11T08:22:02.889Z,4128.00
2018-11-11T08:23:02.916Z,3744.00
2018-11-11T08:24:02.944Z,3832.00
2018-11-11T08:25:02.973Z,4040.00
2018-11-11T08:26:03.001Z,3852.00
2018-11-11T08:27:03.026Z,4064.00
2018-11-11T08:28:03.053Z,4112.00
2018-11-11T08:29:03.076Z,4340.00
2018-11-11T08:30:03.107Z,4932.00
2018-11-11T08:31:03.134Z,4532.00
2018-11-11T08:32:03.218Z,4616.00
2018-11-11T08:33:03.189Z,4464.00
2018-11-11T08:34:03.215Z,4348.00
2018-11-11T08:35:03.244Z,3848.00
2018-11-11T08:36:03.267Z,3376.00
2018-11-11T08:37:03.301Z,3532.00
2018-11-11T08:38:03.324Z,3748.00
2018-11-11T08:39:03.354Z,3588.00
2018-11-11T08:40:03.376Z,3544.00
2018-11-11T08:41:03.407Z,3880.00
2018-11-11T08:42:03.438Z,4504.00
2018-11-11T08:43:03.460Z,4376.00
2018-11-11T08:44:03.486Z,3988.00
2018-11-11T08:45:03.514Z,3728.00
2018-11-11T08:46:03.543Z,5272.00
2018-11-11T08:47:03.569Z,4912.00
2018-11-11T08:48:03.618Z,4828.00
2018-11-11T08:49:03.625Z,4292.00
2018-11-11T08:50:03.650Z,3884.00
2018-11-11T08:51:03.681Z,4180.00
2018-11-11T08:52:03.703Z,4192.00
2018-11-11T08:53:03.731Z,4064.00
2018-11-11T08:54:03.761Z,4284.00
2018-11-11T08:55:03.787Z,4320.00
2018-11-11T08:56:03.817Z,4300.00
2018-11-11T08:57:03.841Z,4664.00
2018-11-11T08:58:03.975Z,4148.00
2018-11-11T08:59:03.897Z,4080.00
2018-11-11T09:00:03.923Z,4368.00
2018-11-11T09:01:03.951Z,4576.00
2018-11-11T09:02:03.980Z,4020.00
2018-11-11T09:03:04.005Z,4200.00
2018-11-11T09:04:04.034Z,3972.00
2018-11-11T09:05:04.070Z,5096.00
2018-11-11T09:06:04.090Z,4352.00
2018-11-11T09:07:04.118Z,4328.00
2018-11-11T09:08:04.145Z,5320.00
2018-11-11T09:09:04.170Z,4744.00
2018-11-11T09:10:04.196Z,4508.00
2018-11-11T09:11:04.233Z,4744.00
2018-11-11T09:12:04.255Z,4504.00
2018-11-11T09:13:04.278Z,5168.00
2018-11-11T09:14:04.309Z,4972.00
2018-11-11T09:15:04.335Z,5040.00
2018-11-11T09:16:04.361Z,4492.00
2018-11-11T09:17:04.389Z,5064.00
2018-11-11T09:18:04.422Z,4188.00
2018-11-11T09:19:04.446Z,4260.00
2018-11-11T09:20:04.471Z,5168.00
2018-11-11T09:21:04.499Z,4288.00
2018-11-11T09:22:04.532Z,4588.00
2018-11-11T09:23:04.555Z,4692.00
2018-11-11T09:24:04.582Z,5600.00
2018-11-11T09:25:04.613Z,5732.00
2018-11-11T09:26:04.641Z,5496.00
2018-11-11T09:27:04.665Z,6328.00
2018-11-11T09:28:04.691Z,4940.00
2018-11-11T09:29:04.726Z,5416.00
2018-11-11T09:30:04.750Z,4812.00
2018-11-11T09:31:04.778Z,4588.00
2018-11-11T09:32:04.803Z,4376.00
2018-11-11T09:33:04.830Z,5156.00
2018-11-11T09:34:04.856Z,4700.00
2018-11-11T09:35:04.946Z,4072.00
2018-11-11T09:36:04.911Z,4148.00
2018-11-11T09:37:04.945Z,4976.00
2018-11-11T09:38:04.972Z,4956.00
2018-11-11T09:39:05.074Z,4152.00
2018-11-11T09:40:05.020Z,5012.00
2018-11-11T09:41:05.049Z,4784.00
2018-11-11T09:42:05.079Z,4556.00
2018-11-11T09:43:05.105Z,4932.00
2018-11-11T09:44:05.140Z,5120.00
2018-11-11T09:45:05.164Z,4876.00
2018-11-11T09:46:05.191Z,5504.00
2018-11-11T09:47:05.217Z,4260.00
2018-11-11T09:48:05.244Z,5188.00
2018-11-11T09:49:05.269Z,5240.00
2018-11-11T09:50:05.297Z,5952.00
2018-11-11T09:51:05.324Z,5156.00
2018-11-11T09:52:05.358Z,5616.00
2018-11-11T09:53:05.385Z,5140.00
2018-11-11T09:54:05.446Z,5644.00
2018-11-11T09:55:05.436Z,5340.00
2018-11-11T09:56:05.465Z,6344.00
2018-11-11T09:57:05.490Z,5052.00
2018-11-11T09:58:05.521Z,5276.00
2018-11-11T09:59:05.554Z,5700.00
2018-11-11T10:00:05.576Z,4908.00
2018-11-11T10:01:05.601Z,5616.00
2018-11-11T10:02:05.633Z,5476.00
2018-11-11T10:03:05.659Z,6348.00
2018-11-11T10:04:05.683Z,6380.00
2018-11-11T10:05:05.714Z,6156.00
2018-11-11T10:06:05.743Z,4960.00
2018-11-11T10:07:05.842Z,5460.00
2018-11-11T10:08:05.795Z,5428.00
2018-11-11T10:09:05.822Z,4780.00
2018-11-11T10:10:05.851Z,5772.00
2018-11-11T10:11:05.881Z,7168.00
2018-11-11T10:12:05.907Z,6520.00
2018-11-11T10:13:05.935Z,8028.00
2018-11-11T10:14:05.963Z,6156.00
2018-11-11T10:15:05.993Z,5632.00
2018-11-11T10:16:06.016Z,6240.00
2018-11-11T10:17:06.045Z,5144.00
2018-11-11T10:18:06.074Z,5224.00
2018-11-11T10:19:06.100Z,5536.00
2018-11-11T10:20:06.155Z,5240.00
2018-11-11T10:21:06.156Z,5268.00
2018-11-11T10:22:06.183Z,6564.00
2018-11-11T10:23:06.211Z,4552.00
2018-11-11T10:24:06.239Z,4532.00
2018-11-11T10:25:06.269Z,4136.00
2018-11-11T10:26:06.300Z,4312.00
2018-11-11T10:27:06.327Z,4472.00
2018-11-11T10:28:06.350Z,4436.00
2018-11-11T10:29:06.396Z,4544.00
2018-11-11T10:30:06.406Z,5252.00
2018-11-11T10:31:06.434Z,4140.00
2018-11-11T10:32:06.466Z,7476.00
2018-11-11T10:33:06.489Z,5792.00
2018-11-11T10:34:06.517Z,4944.00
2018-11-11T10:35:06.543Z,4360.00
2018-11-11T10:36:06.572Z,4412.00
2018-11-11T10:37:06.640Z,4340.00
2018-11-11T10:38:06.632Z,4416.00
2018-11-11T10:39:06.695Z,5176.00
2018-11-11T10:40:06.683Z,5560.00
2018-11-11T10:41:06.716Z,5744.00
2018-11-11T10:42:06.739Z,5856.00
2018-11-11T10:43:06.767Z,5068.00
2018-11-11T10:44:06.797Z,4664.00
2018-11-11T10:45:06.824Z,4612.00
2018-11-11T10:46:06.849Z,4288.00
2018-11-11T10:47:06.877Z,4692.00
2018-11-11T10:48:06.904Z,5100.00
2018-11-11T10:49:06.935Z,5460.00
2018-11-11T10:50:06.961Z,4564.00
2018-11-11T10:51:06.991Z,4940.00
2018-11-11T10:52:07.014Z,4760.00
2018-11-11T10:53:07.043Z,4832.00
2018-11-11T10:54:07.095Z,4752.00
2018-11-11T10:55:07.101Z,4992.00
2018-11-11T10:56:07.125Z,5180.00
2018-11-11T10:57:07.155Z,4608.00
2018-11-11T10:58:07.181Z,4588.00
2018-11-11T10:59:07.212Z,4656.00
2018-11-11T11:00:07.296Z,4440.00
2018-11-11T11:01:07.266Z,4076.00
2018-11-11T11:02:07.293Z,3688.00
2018-11-11T11:03:07.322Z,4588.00
2018-11-11T11:04:07.350Z,3544.00
2018-11-11T11:05:07.383Z,4548.00
2018-11-11T11:06:07.503Z,4608.00
2018-11-11T11:07:07.434Z,3860.00
2018-11-11T11:08:07.462Z,4388.00
2018-11-11T11:09:07.485Z,4004.00
2018-11-11T11:10:07.517Z,4108.00
2018-11-11T11:11:07.542Z,3920.00
2018-11-11T11:12:07.569Z,3696.00
2018-11-11T11:13:07.619Z,3740.00
2018-11-11T11:14:07.625Z,4332.00
2018-11-11T11:15:07.657Z,5012.00
2018-11-11T11:16:07.679Z,4488.00
2018-11-11T11:17:07.711Z,4000.00
2018-11-11T11:18:07.736Z,4436.00
2018-11-11T11:19:07.767Z,4920.00
2018-11-11T11:20:07.791Z,4368.00
2018-11-11T11:21:07.817Z,4444.00
2018-11-11T11:22:07.846Z,4844.00
2018-11-11T11:23:07.945Z,4384.00
2018-11-11T11:24:07.904Z,4128.00
2018-11-11T11:25:07.929Z,3928.00
2018-11-11T11:26:07.962Z,4628.00
2018-11-11T11:27:08.021Z,4048.00
2018-11-11T11:28:08.011Z,3996.00
2018-11-11T11:29:08.043Z,4064.00
2018-11-11T11:30:08.068Z,3608.00
2018-11-11T11:31:08.096Z,4032.00
2018-11-11T11:32:08.189Z,4228.00
2018-11-11T11:33:08.154Z,3580.00
2018-11-11T11:34:08.179Z,3956.00
2018-11-11T11:35:08.220Z,4156.00
2018-11-11T11:36:08.240Z,3616.00
2018-11-11T11:37:08.263Z,3668.00
2018-11-11T11:38:08.314Z,3196.00
2018-11-11T11:39:08.320Z,3700.00
2018-11-11T11:40:08.346Z,3504.00
2018-11-11T11:41:08.396Z,2956.00
2018-11-11T11:42:08.400Z,3288.00
2018-11-11T11:43:08.426Z,3620.00
2018-11-11T11:44:08.486Z,3768.00
2018-11-11T11:45:08.483Z,4612.00
2018-11-11T11:46:08.509Z,3860.00
2018-11-11T11:47:08.539Z,3180.00
2018-11-11T11:48:08.567Z,3800.00
2018-11-11T11:49:08.595Z,4536.00
2018-11-11T11:50:08.757Z,3588.00
2018-11-11T11:51:08.647Z,3908.00
2018-11-11T11:52:08.694Z,3788.00
2018-11-11T11:53:08.705Z,3432.00
2018-11-11T11:54:08.731Z,3500.00
2018-11-11T11:55:08.762Z,2984.00
2018-11-11T11:56:08.786Z,3376.00
2018-11-11T11:57:08.813Z,3656.00
2018-11-11T11:58:08.913Z,3388.00
2018-11-11T11:59:08.869Z,3368.00
2018-11-11T12:00:08.898Z,3532.00
2018-11-11T12:01:08.925Z,2864.00
2018-11-11T12:02:09.007Z,3600.00
2018-11-11T12:03:08.978Z,3204.00
2018-11-11T12:04:09.005Z,2972.00
2018-11-11T12:05:09.036Z,2964.00
2018-11-11T12:06:09.062Z,3196.00
2018-11-11T12:07:09.092Z,3708.00
2018-11-11T12:08:09.120Z,3032.00
2018-11-11T12:09:09.183Z,2500.00
2018-11-11T12:10:09.174Z,2880.00
2018-11-11T12:11:09.202Z,2376.00
2018-11-11T12:12:09.227Z,2724.00
2018-11-11T12:13:09.264Z,2604.00
2018-11-11T12:14:09.284Z,2912.00
2018-11-11T12:15:09.309Z,2996.00
2018-11-11T12:16:09.336Z,2624.00
2018-11-11T12:17:09.498Z,2536.00
2018-11-11T12:18:09.394Z,2552.00
2018-11-11T12:19:09.419Z,2852.00
2018-11-11T12:20:09.450Z,2632.00
2018-11-11T12:21:09.476Z,2328.00
2018-11-11T12:22:09.501Z,2160.00
2018-11-11T12:23:09.585Z,2176.00
2018-11-11T12:24:09.556Z,2116.00
2018-11-11T12:25:09.593Z,2596.00
2018-11-11T12:26:09.615Z,2672.00
2018-11-11T12:27:09.644Z,2436.00
2018-11-11T12:28:09.677Z,2692.00
2018-11-11T12:29:09.702Z,2228.00
2018-11-11T12:30:09.721Z,1824.00
2018-11-11T12:31:09.747Z,1900.00
2018-11-11T12:32:09.776Z,2056.00
2018-11-11T12:33:09.803Z,2112.00
2018-11-11T12:34:09.833Z,2144.00
2018-11-11T12:35:09.868Z,1908.00
2018-11-11T12:36:09.884Z,2368.00
2018-11-11T12:37:09.917Z,2552.00
2018-11-11T12:38:09.940Z,1984.00
2018-11-11T12:39:10.039Z,1896.00